createdAt,value
2023-11-04T00:01:15.557Z,9.70
2023-11-04T00:03:52.467Z,9.60
2023-11-04T00:06:20.158Z,9.70
2023-11-04T00:08:53.355Z,9.60
2023-11-04T00:11:27.307Z,9.60
2023-11-04T00:13:54.350Z,9.60
2023-11-04T00:16:41.302Z,9.60
2023-11-04T00:19:08.159Z,9.60
2023-11-04T00:21:35.210Z,9.60
2023-11-04T00:24:10.319Z,9.60
2023-11-04T00:26:38.971Z,9.60
2023-11-04T00:29:13.305Z,9.60
2023-11-04T00:31:40.117Z,9.60
2023-11-04T00:34:14.361Z,9.60
2023-11-04T00:36:41.197Z,9.60
2023-11-04T00:39:09.380Z,9.50
2023-11-04T00:41:42.304Z,9.50
2023-11-04T00:44:15.333Z,9.50
2023-11-04T00:46:49.301Z,9.50
2023-11-04T00:49:16.181Z,9.50
2023-11-04T00:51:49.329Z,9.60
2023-11-04T00:54:16.832Z,9.50
2023-11-04T00:56:50.481Z,9.50
2023-11-04T00:59:17.727Z,9.50
2023-11-04T01:01:45.166Z,9.50
2023-11-04T01:04:18.533Z,9.50
2023-11-04T01:06:45.532Z,9.50
2023-11-04T01:09:20.400Z,9.50
2023-11-04T01:11:53.350Z,9.50
2023-11-04T01:14:20.226Z,9.50
2023-11-04T01:17:07.365Z,9.50
2023-11-04T01:19:34.312Z,9.50
2023-11-04T01:22:01.202Z,9.50
2023-11-04T01:24:36.393Z,9.50
2023-11-04T01:27:10.677Z,9.40
2023-11-04T01:29:44.405Z,9.40
2023-11-04T01:32:11.231Z,9.40
2023-11-04T01:34:44.604Z,9.40
2023-11-04T01:37:11.662Z,9.40
2023-11-04T01:39:38.614Z,9.40
2023-11-04T01:42:15.377Z,9.40
2023-11-04T01:44:42.365Z,9.40
2023-11-04T01:47:15.397Z,9.40
2023-11-04T01:49:42.891Z,9.40
2023-11-04T01:52:10.165Z,9.40
2023-11-04T01:54:45.410Z,9.40
2023-11-04T01:57:12.407Z,9.40
2023-11-04T01:59:39.322Z,9.40
2023-11-04T02:02:14.393Z,9.40
2023-11-04T02:04:42.884Z,9.40
2023-11-04T02:07:09.777Z,9.40
2023-11-04T02:09:46.485Z,9.40
2023-11-04T02:12:14.989Z,9.40
2023-11-04T02:15:00.444Z,9.40
2023-11-04T02:17:47.422Z,9.40
2023-11-04T02:20:22.412Z,9.40
2023-11-04T02:22:49.324Z,9.40
2023-11-04T02:25:25.446Z,9.40
2023-11-04T02:27:52.319Z,9.40
2023-11-04T02:30:25.444Z,9.40
2023-11-04T02:32:52.345Z,9.40
2023-11-04T02:38:17.391Z,9.40
2023-11-04T02:40:50.496Z,9.40
2023-11-04T02:43:17.833Z,9.40
2023-11-04T02:45:51.474Z,9.40
2023-11-04T02:48:24.650Z,9.40
2023-11-04T02:50:51.889Z,9.40
2023-11-04T02:53:25.419Z,9.40
2023-11-04T02:55:58.426Z,9.40
2023-11-04T02:58:25.291Z,9.40
2023-11-04T03:03:46.556Z,9.40
2023-11-04T03:06:32.534Z,9.40
2023-11-04T03:08:59.374Z,9.40
2023-11-04T03:11:26.268Z,9.40
2023-11-04T03:13:59.454Z,9.40
2023-11-04T03:16:46.465Z,9.40
2023-11-04T03:22:14.482Z,9.40
2023-11-04T03:24:47.475Z,9.40
2023-11-04T03:27:21.501Z,9.40
2023-11-04T03:29:48.351Z,9.40
2023-11-04T03:32:15.194Z,9.40
2023-11-04T03:34:48.492Z,9.40
2023-11-04T03:37:15.482Z,9.40
2023-11-04T03:39:42.384Z,9.40
2023-11-04T03:42:15.487Z,9.40
2023-11-04T03:44:48.475Z,9.40
2023-11-04T03:47:15.458Z,9.40
2023-11-04T03:49:48.482Z,9.50
2023-11-04T03:52:15.342Z,9.40
2023-11-04T03:54:57.527Z,9.40
2023-11-04T03:57:24.411Z,9.40
2023-11-04T04:02:52.927Z,9.40
2023-11-04T04:05:26.538Z,9.40
2023-11-04T04:07:53.595Z,9.40
2023-11-04T04:10:26.509Z,9.50
2023-11-04T04:12:53.667Z,9.40
2023-11-04T04:15:20.913Z,9.40
2023-11-04T04:18:04.643Z,9.40
2023-11-04T04:20:44.581Z,9.40
2023-11-04T04:23:18.112Z,9.40
2023-11-04T04:25:51.529Z,9.40
2023-11-04T04:28:18.379Z,9.40
2023-11-04T04:30:45.564Z,9.40
2023-11-04T04:33:18.705Z,9.50
2023-11-04T04:35:45.659Z,9.40
2023-11-04T04:38:12.552Z,9.40
2023-11-04T04:40:45.567Z,9.40
2023-11-04T04:43:12.700Z,9.50
2023-11-04T04:45:46.607Z,9.40
2023-11-04T04:48:13.493Z,9.40
2023-11-04T04:50:49.548Z,9.40
2023-11-04T04:53:16.434Z,9.40
2023-11-04T04:55:43.324Z,9.40
2023-11-04T04:58:17.566Z,9.40
2023-11-04T05:00:44.400Z,9.40
2023-11-04T05:03:17.594Z,9.40
2023-11-04T05:06:06.556Z,9.40
2023-11-04T05:08:33.484Z,9.40
2023-11-04T05:11:00.343Z,9.40
2023-11-04T05:13:38.578Z,9.40
2023-11-04T05:16:12.563Z,9.40
2023-11-04T05:18:46.761Z,9.40
2023-11-04T05:21:21.585Z,9.40
2023-11-04T05:23:48.394Z,9.40
2023-11-04T05:26:21.590Z,9.40
2023-11-04T05:28:48.419Z,9.50
2023-11-04T05:31:21.610Z,9.50
2023-11-04T05:33:54.589Z,9.40
2023-11-04T05:36:21.462Z,9.40
2023-11-04T05:38:54.598Z,9.40
2023-11-04T05:41:21.413Z,9.50
2023-11-04T05:43:48.251Z,9.50
2023-11-04T05:46:21.603Z,9.40
2023-11-04T05:48:48.520Z,9.40
2023-11-04T05:51:32.689Z,9.40
2023-11-04T05:53:59.523Z,9.40
2023-11-04T05:56:26.356Z,9.50
2023-11-04T05:58:59.621Z,9.50
2023-11-04T06:01:26.566Z,9.50
2023-11-04T06:04:09.727Z,9.50
2023-11-04T06:06:36.674Z,9.50
2023-11-04T06:09:03.743Z,9.50
2023-11-04T06:11:37.618Z,9.50
2023-11-04T06:14:05.049Z,9.50
2023-11-04T06:16:41.649Z,9.50
2023-11-04T06:19:14.302Z,9.50
2023-11-04T06:21:41.337Z,9.50
2023-11-04T06:24:14.636Z,9.50
2023-11-04T06:26:47.631Z,9.50
2023-11-04T06:29:14.499Z,9.50
2023-11-04T06:31:41.379Z,9.50
2023-11-04T06:34:14.727Z,9.50
2023-11-04T06:36:41.613Z,9.50
2023-11-04T06:39:08.541Z,9.50
2023-11-04T06:41:42.652Z,9.50
2023-11-04T06:44:15.668Z,9.50
2023-11-04T06:46:53.425Z,9.50
2023-11-04T06:49:27.757Z,9.50
2023-11-04T06:51:54.901Z,9.50
2023-11-04T06:54:21.768Z,9.50
2023-11-04T06:56:54.695Z,9.50
2023-11-04T06:59:21.986Z,9.50
2023-11-04T07:01:58.671Z,9.50
2023-11-04T07:04:25.554Z,9.40
2023-11-04T07:06:59.771Z,9.50
2023-11-04T07:09:27.995Z,9.50
2023-11-04T07:12:21.677Z,9.50
2023-11-04T07:14:48.881Z,9.40
2023-11-04T07:17:36.712Z,9.50
2023-11-04T07:20:05.946Z,9.40
2023-11-04T07:22:32.860Z,9.40
2023-11-04T07:25:06.706Z,9.40
2023-11-04T07:27:33.559Z,9.50
2023-11-04T07:30:07.702Z,9.50
2023-11-04T07:32:34.576Z,9.50
2023-11-04T07:35:07.708Z,9.50
2023-11-04T07:37:40.701Z,9.50
2023-11-04T07:40:08.863Z,9.50
2023-11-04T07:42:39.485Z,9.40
2023-11-04T07:45:16.704Z,9.40
2023-11-04T07:47:44.433Z,9.40
2023-11-04T07:50:31.717Z,9.40
2023-11-04T07:52:59.350Z,9.40
2023-11-04T07:55:26.501Z,9.40
2023-11-04T07:57:59.758Z,9.40
2023-11-04T08:00:28.301Z,9.50
2023-11-04T08:02:55.208Z,9.50
2023-11-04T08:08:40.728Z,9.50
2023-11-04T08:11:23.738Z,9.50
2023-11-04T08:13:53.656Z,9.50
2023-11-04T08:16:28.733Z,9.50
2023-11-04T08:22:35.745Z,9.50
2023-11-04T08:25:15.740Z,9.50
2023-11-04T08:27:42.686Z,9.50
2023-11-04T08:30:10.376Z,9.50
2023-11-04T08:32:43.792Z,9.50
2023-11-04T08:35:10.725Z,9.50
2023-11-04T08:37:43.749Z,9.50
2023-11-04T08:40:11.211Z,9.50
2023-11-04T08:42:38.101Z,9.50
2023-11-04T08:45:13.794Z,9.50
2023-11-04T08:47:42.064Z,9.50
2023-11-04T08:50:09.653Z,9.60
2023-11-04T08:52:52.783Z,9.60
2023-11-04T08:55:26.776Z,9.50
2023-11-04T08:57:53.695Z,9.60
2023-11-04T09:00:20.926Z,9.60
2023-11-04T09:02:53.974Z,9.60
2023-11-04T09:05:28.371Z,9.60
2023-11-04T09:08:04.790Z,9.60
2023-11-04T09:10:31.618Z,9.60
2023-11-04T09:13:05.800Z,9.60
2023-11-04T09:15:32.653Z,9.60
2023-11-04T09:18:12.891Z,9.60
2023-11-04T09:20:47.175Z,9.60
2023-11-04T09:23:20.804Z,9.60
2023-11-04T09:26:02.449Z,9.60
2023-11-04T09:28:35.803Z,9.60
2023-11-04T09:31:02.738Z,9.70
2023-11-04T09:36:33.792Z,9.70
2023-11-04T09:39:06.831Z,9.70
2023-11-04T09:41:36.505Z,9.70
2023-11-04T09:44:05.197Z,9.70
2023-11-04T09:46:38.830Z,9.70
2023-11-04T09:49:05.791Z,9.70
2023-11-04T09:51:39.837Z,9.70
2023-11-04T09:54:10.665Z,9.70
2023-11-04T09:56:37.916Z,9.70
2023-11-04T09:59:14.872Z,9.80
2023-11-04T10:01:42.237Z,9.80
2023-11-04T10:04:09.190Z,9.80
2023-11-04T10:06:42.841Z,9.80
2023-11-04T10:09:09.706Z,9.80
2023-11-04T10:11:42.857Z,9.80
2023-11-04T10:14:10.352Z,9.80
2023-11-04T10:16:37.766Z,9.80
2023-11-04T10:19:17.907Z,9.80
2023-11-04T10:21:51.983Z,9.80
2023-11-04T10:24:25.858Z,9.90
2023-11-04T10:26:57.774Z,9.90
2023-11-04T10:29:24.643Z,9.80
2023-11-04T10:32:00.855Z,9.80
2023-11-04T10:34:31.181Z,9.90
2023-11-04T10:37:14.239Z,9.90
2023-11-04T10:39:53.886Z,9.90
2023-11-04T10:42:24.114Z,9.90
2023-11-04T10:45:05.894Z,9.90
2023-11-04T10:48:02.924Z,9.90
2023-11-04T10:50:34.019Z,10.00
2023-11-04T10:53:20.866Z,9.90
2023-11-04T10:56:04.919Z,9.90
2023-11-04T10:58:40.975Z,9.90
2023-11-04T11:01:15.912Z,10.00
2023-11-04T11:03:43.823Z,10.00
2023-11-04T11:06:12.216Z,10.00
2023-11-04T11:08:47.936Z,10.00
2023-11-04T11:11:56.943Z,10.00
2023-11-04T11:14:24.294Z,10.00
2023-11-04T11:17:10.715Z,10.00
2023-11-04T11:20:38.033Z,10.00
2023-11-04T11:26:22.905Z,10.00
2023-11-04T11:28:58.047Z,10.00
2023-11-04T11:31:41.923Z,10.00
2023-11-04T11:34:09.401Z,10.00
2023-11-04T11:36:42.931Z,10.10
2023-11-04T11:39:16.925Z,10.10
2023-11-04T11:41:45.126Z,10.10
2023-11-04T11:44:15.681Z,10.10
2023-11-04T11:46:52.995Z,10.10
2023-11-04T11:49:20.294Z,10.10
2023-11-04T11:51:53.951Z,10.10
2023-11-04T11:54:29.339Z,10.10
2023-11-04T11:57:03.949Z,10.10
2023-11-04T11:59:36.992Z,10.10
2023-11-04T12:02:10.957Z,10.10
2023-11-04T12:04:37.964Z,10.10
2023-11-04T12:07:05.818Z,10.10
2023-11-04T12:09:39.014Z,10.10
2023-11-04T12:12:12.945Z,10.20
2023-11-04T12:14:39.776Z,10.10
2023-11-04T12:17:15.967Z,10.20
2023-11-04T12:19:55.985Z,10.20
2023-11-04T12:22:27.063Z,10.20
2023-11-04T12:24:54.442Z,10.10
2023-11-04T12:27:27.987Z,10.20
2023-11-04T12:29:58.652Z,10.20
2023-11-04T12:32:31.994Z,10.20
2023-11-04T12:35:00.156Z,10.20
2023-11-04T12:37:35.122Z,10.20
2023-11-04T12:40:02.138Z,10.20
2023-11-04T12:42:37.026Z,10.20
2023-11-04T12:45:14.001Z,10.20
2023-11-04T12:47:41.471Z,10.20
2023-11-04T12:50:09.945Z,10.20
2023-11-04T12:52:43.021Z,10.30
2023-11-04T12:55:16.095Z,10.20
2023-11-04T12:57:50.019Z,10.20
2023-11-04T13:00:17.292Z,10.30
2023-11-04T13:02:44.223Z,10.30
2023-11-04T13:05:18.175Z,10.20
2023-11-04T13:07:45.561Z,10.30
2023-11-04T13:10:19.048Z,10.30
2023-11-04T13:12:46.738Z,10.30
2023-11-04T13:15:14.271Z,10.30
2023-11-04T13:17:48.044Z,10.30
2023-11-04T13:20:21.581Z,10.30
2023-11-04T13:22:56.016Z,10.30
2023-11-04T13:25:22.857Z,10.30
2023-11-04T13:27:57.079Z,10.30
2023-11-04T13:30:24.921Z,10.30
2023-11-04T13:32:51.883Z,10.30
2023-11-04T13:35:25.120Z,10.30
2023-11-04T13:37:59.029Z,10.30
2023-11-04T13:40:26.991Z,10.30
2023-11-04T13:43:07.109Z,10.30
2023-11-04T13:45:33.933Z,10.30
2023-11-04T13:48:00.771Z,10.30
2023-11-04T13:50:34.045Z,10.30
2023-11-04T13:53:01.013Z,10.30
2023-11-04T13:55:27.830Z,10.30
2023-11-04T13:58:01.121Z,10.30
2023-11-04T14:00:28.089Z,10.30
2023-11-04T14:02:55.034Z,10.30
2023-11-04T14:05:28.229Z,10.30
2023-11-04T14:07:55.392Z,10.30
2023-11-04T14:10:22.266Z,10.30
2023-11-04T14:12:56.127Z,10.30
2023-11-04T14:15:22.969Z,10.30
2023-11-04T14:17:56.142Z,10.40
2023-11-04T14:20:39.396Z,10.30
2023-11-04T14:23:06.269Z,10.30
2023-11-04T14:25:33.097Z,10.30
2023-11-04T14:28:06.168Z,10.30
2023-11-04T14:30:39.170Z,10.30
2023-11-04T14:33:08.365Z,10.30
2023-11-04T14:35:38.684Z,10.30
2023-11-04T14:38:12.100Z,10.30
2023-11-04T14:40:38.970Z,10.30
2023-11-04T14:43:13.170Z,10.30
2023-11-04T14:45:40.124Z,10.30
2023-11-04T14:48:14.219Z,10.30
2023-11-04T14:50:48.135Z,10.30
2023-11-04T14:53:15.020Z,10.40
2023-11-04T14:55:41.852Z,10.30
2023-11-04T14:58:15.169Z,10.30
2023-11-04T15:00:42.056Z,10.30
2023-11-04T15:03:08.969Z,10.40
2023-11-04T15:05:42.216Z,10.30
2023-11-04T15:08:09.293Z,10.30
2023-11-04T15:10:36.091Z,10.30
2023-11-04T15:13:10.166Z,10.30
2023-11-04T15:15:37.307Z,10.30
2023-11-04T15:18:24.152Z,10.30
2023-11-04T15:20:51.029Z,10.30
2023-11-04T15:23:17.842Z,10.30
2023-11-04T15:25:51.139Z,10.30
2023-11-04T15:28:18.012Z,10.30
2023-11-04T15:30:51.196Z,10.30
2023-11-04T15:33:20.250Z,10.30
2023-11-04T15:35:47.232Z,10.30
2023-11-04T15:38:21.170Z,10.30
2023-11-04T15:40:48.354Z,10.30
2023-11-04T15:43:22.234Z,10.40
2023-11-04T15:45:49.092Z,10.30
2023-11-04T15:48:16.595Z,10.30
2023-11-04T15:50:50.182Z,10.30
2023-11-04T15:53:17.054Z,10.30
2023-11-04T15:55:50.189Z,10.30
2023-11-04T15:58:17.074Z,10.30
2023-11-04T16:00:43.916Z,10.30
2023-11-04T16:03:17.214Z,10.30
2023-11-04T16:05:44.699Z,10.30
2023-11-04T16:08:18.214Z,10.30
2023-11-04T16:10:45.026Z,10.20
2023-11-04T16:13:11.898Z,10.30
2023-11-04T16:15:45.245Z,10.30
2023-11-04T16:18:32.309Z,10.30
2023-11-04T16:21:08.237Z,10.30
2023-11-04T16:23:35.062Z,10.30
2023-11-04T16:26:01.947Z,10.30
2023-11-04T16:28:35.218Z,10.30
2023-11-04T16:31:02.083Z,10.30
2023-11-04T16:33:35.192Z,10.20
2023-11-04T16:36:03.960Z,10.30
2023-11-04T16:38:38.249Z,10.20
2023-11-04T16:41:12.281Z,10.20
2023-11-04T16:43:39.138Z,10.20
2023-11-04T16:46:08.122Z,10.20
2023-11-04T16:48:41.253Z,10.20
2023-11-04T16:51:08.105Z,10.20
2023-11-04T16:53:35.618Z,10.20
2023-11-04T16:56:09.240Z,10.20
2023-11-04T16:58:36.097Z,10.20
2023-11-04T17:01:11.072Z,10.20
2023-11-04T17:03:38.855Z,10.20
2023-11-04T17:06:09.065Z,10.20
2023-11-04T17:08:43.245Z,10.20
2023-11-04T17:11:10.193Z,10.20
2023-11-04T17:13:41.649Z,10.20
2023-11-04T17:16:15.275Z,10.20
2023-11-04T17:18:49.314Z,10.20
2023-11-04T17:21:16.177Z,10.20
2023-11-04T17:23:42.984Z,10.20
2023-11-04T17:26:16.274Z,10.20
2023-11-04T17:28:43.397Z,10.20
2023-11-04T17:31:17.298Z,10.20
2023-11-04T17:33:44.218Z,10.20
2023-11-04T17:36:11.424Z,10.20
2023-11-04T17:38:45.250Z,10.20
2023-11-04T17:41:12.078Z,10.20
2023-11-04T17:43:38.925Z,10.20
2023-11-04T17:46:12.380Z,10.20
2023-11-04T17:48:39.302Z,10.20
2023-11-04T17:51:13.269Z,10.20
2023-11-04T17:53:46.402Z,10.10
2023-11-04T17:56:13.205Z,10.20
2023-11-04T17:58:47.294Z,10.10
2023-11-04T18:01:20.355Z,10.10
2023-11-04T18:03:53.365Z,10.20
2023-11-04T18:06:20.512Z,10.20
2023-11-04T18:08:47.326Z,10.10
2023-11-04T18:14:16.315Z,10.10
2023-11-04T18:16:51.295Z,10.10
2023-11-04T18:19:25.016Z,10.10
2023-11-04T18:22:00.347Z,10.10
2023-11-04T18:24:27.280Z,10.10
2023-11-04T18:27:00.329Z,10.10
2023-11-04T18:29:27.148Z,10.10
2023-11-04T18:31:53.968Z,10.10
2023-11-04T18:34:29.414Z,10.10
2023-11-04T18:37:00.775Z,10.10
2023-11-04T18:39:29.254Z,10.10
2023-11-04T18:42:03.339Z,10.10
2023-11-04T18:44:30.167Z,10.10
2023-11-04T18:46:57.028Z,10.10
2023-11-04T18:49:30.387Z,10.10
2023-11-04T18:52:04.373Z,10.10
2023-11-04T18:54:31.958Z,10.10
2023-11-04T18:56:58.787Z,10.10
2023-11-04T18:59:35.352Z,10.10
2023-11-04T19:02:08.366Z,10.10
2023-11-04T19:04:42.432Z,10.10
2023-11-04T19:07:09.309Z,10.10
2023-11-04T19:09:36.150Z,10.10
2023-11-04T19:12:10.371Z,10.10
2023-11-04T19:14:37.226Z,10.10
2023-11-04T19:17:04.447Z,10.10
2023-11-04T19:19:37.391Z,10.10
2023-11-04T19:22:11.499Z,10.10
2023-11-04T19:24:45.380Z,10.10
2023-11-04T19:27:12.202Z,10.10
2023-11-04T19:29:45.394Z,10.10
2023-11-04T19:32:23.443Z,10.10
2023-11-04T19:34:50.264Z,10.10
2023-11-04T19:37:17.100Z,10.10
2023-11-04T19:39:50.444Z,10.10
2023-11-04T19:42:17.347Z,10.10
2023-11-04T19:44:45.153Z,10.10
2023-11-04T19:47:18.491Z,10.10
2023-11-04T19:49:45.358Z,10.10
2023-11-04T19:52:12.202Z,10.10
2023-11-04T19:54:45.384Z,10.00
2023-11-04T19:57:12.212Z,10.10
2023-11-04T19:59:40.223Z,10.00
2023-11-04T20:02:13.420Z,10.00
2023-11-04T20:04:40.379Z,10.00
2023-11-04T20:07:13.475Z,10.10
2023-11-04T20:09:40.413Z,10.10
2023-11-04T20:12:07.730Z,10.00
2023-11-04T20:17:38.434Z,10.10
2023-11-04T20:23:39.133Z,10.00
2023-11-04T20:26:12.446Z,10.00
2023-11-04T20:28:40.194Z,10.00
2023-11-04T20:31:07.138Z,10.00
2023-11-04T20:33:40.468Z,10.00
2023-11-04T20:36:07.985Z,10.00
2023-11-04T20:38:41.435Z,10.00
2023-11-04T20:41:08.294Z,10.00
2023-11-04T20:43:35.265Z,10.00
2023-11-04T20:46:08.451Z,10.00
2023-11-04T20:48:41.507Z,10.00
2023-11-04T20:51:08.579Z,10.00
2023-11-04T20:53:35.941Z,10.10
2023-11-04T20:56:09.463Z,10.00
2023-11-04T20:58:36.530Z,10.00
2023-11-04T21:01:10.517Z,10.00
2023-11-04T21:03:37.523Z,10.00
2023-11-04T21:06:13.494Z,10.00
2023-11-04T21:08:40.314Z,10.00
2023-11-04T21:11:07.309Z,10.00
2023-11-04T21:13:44.478Z,10.00
2023-11-04T21:16:17.555Z,10.00
2023-11-04T21:18:50.773Z,10.00
2023-11-04T21:21:33.493Z,10.00
2023-11-04T21:24:00.534Z,10.00
2023-11-04T21:26:27.491Z,10.00
2023-11-04T21:29:01.513Z,10.00
2023-11-04T21:31:41.226Z,10.00
2023-11-04T21:37:11.516Z,10.00
2023-11-04T21:39:49.507Z,10.00
2023-11-04T21:42:22.512Z,10.00
2023-11-04T21:44:55.510Z,10.00
2023-11-04T21:47:29.356Z,10.00
2023-11-04T21:50:02.517Z,10.00
2023-11-04T21:52:35.505Z,10.00
2023-11-04T21:55:08.555Z,10.00
2023-11-04T21:57:41.510Z,10.00
2023-11-04T22:00:18.537Z,10.00
2023-11-04T22:02:45.526Z,9.90
2023-11-04T22:05:12.450Z,9.90
2023-11-04T22:07:46.525Z,9.90
2023-11-04T22:10:13.477Z,10.00
2023-11-04T22:12:46.550Z,9.90
2023-11-04T22:15:13.493Z,9.90
2023-11-04T22:17:40.529Z,9.90
2023-11-04T22:20:15.619Z,9.90
2023-11-04T22:22:55.558Z,9.90
2023-11-04T22:25:22.526Z,9.90
2023-11-04T22:27:49.392Z,9.90
2023-11-04T22:30:24.717Z,9.90
2023-11-04T22:32:51.719Z,9.90
2023-11-04T22:35:18.715Z,9.90
2023-11-04T22:37:52.553Z,9.90
2023-11-04T22:40:25.617Z,9.90
2023-11-04T22:42:52.498Z,9.90
2023-11-04T22:45:26.571Z,9.90
2023-11-04T22:47:59.624Z,9.90
2023-11-04T22:50:26.535Z,9.90
2023-11-04T22:52:59.585Z,9.90
2023-11-04T22:55:26.425Z,9.90
2023-11-04T22:57:59.578Z,9.90
2023-11-04T23:00:55.616Z,9.90
2023-11-04T23:03:22.609Z,9.90
2023-11-04T23:05:56.790Z,9.90
2023-11-04T23:08:30.582Z,9.90
2023-11-04T23:10:57.419Z,9.80
2023-11-04T23:13:24.372Z,9.90
2023-11-04T23:15:57.595Z,9.90
2023-11-04T23:18:24.810Z,9.80
2023-11-04T23:21:04.610Z,9.80
2023-11-04T23:23:31.429Z,9.80
2023-11-04T23:25:58.379Z,9.80
2023-11-04T23:28:31.703Z,9.80
2023-11-04T23:30:59.075Z,9.80
2023-11-04T23:33:35.691Z,9.80
2023-11-04T23:36:02.525Z,9.80
2023-11-04T23:38:29.355Z,9.80
2023-11-04T23:41:02.609Z,9.80
2023-11-04T23:43:29.736Z,9.80
2023-11-04T23:45:58.108Z,9.80
2023-11-04T23:48:34.614Z,9.80
2023-11-04T23:51:01.813Z,9.80
2023-11-04T23:53:35.625Z,9.80
2023-11-04T23:56:02.442Z,9.80
2023-11-04T23:58:29.337Z,9.80
